Time;durP1;ratioP1;P1;durP2;ratioP2;P2;SDS_P1;SDS_P2;PMS_P1;PMS_P2;Temp;Humidity;BMP_temperature;BMP_pressure;BME280_temperature;BME280_humidity;BME280_pressure;Samples;Min_cycle;Max_cycle;Signal;HPM_P1;HPM_P2
2022/07/08 00:00:17;;;;;;;10.90;2.00;;;21.80;51.40;;;;;;7394427;19;20028;-77
2022/07/08 00:02:48;;;;;;;12.43;1.98;;;21.80;51.30;;;;;;7395138;19;20990;-77
2022/07/08 00:05:17;;;;;;;6.28;1.83;;;21.80;51.20;;;;;;7390632;19;20018;-77
2022/07/08 00:07:49;;;;;;;9.80;2.13;;;21.90;51.20;;;;;;7390793;19;20022;-77
2022/07/08 00:10:18;;;;;;;6.10;1.85;;;21.90;51.20;;;;;;7392368;19;20023;-77
2022/07/08 00:12:47;;;;;;;5.03;1.50;;;21.80;51.30;;;;;;7395624;19;20115;-77
2022/07/08 00:15:16;;;;;;;9.48;2.40;;;21.80;51.50;;;;;;7394813;19;20022;-77
2022/07/08 00:17:44;;;;;;;6.00;1.67;;;21.70;51.60;;;;;;7393772;19;20019;-77
2022/07/08 00:20:16;;;;;;;6.78;1.90;;;21.60;51.70;;;;;;7392826;19;20029;-77
2022/07/08 00:22:45;;;;;;;8.32;1.98;;;21.60;51.90;;;;;;7390905;19;20026;-77
2022/07/08 00:25:14;;;;;;;9.65;2.30;;;21.50;51.90;;;;;;7348455;19;22145;-76
2022/07/08 00:27:42;;;;;;;6.70;2.05;;;21.60;52.10;;;;;;7386944;19;20094;-76
2022/07/08 00:30:12;;;;;;;7.70;2.20;;;21.50;52.20;;;;;;7391069;19;20031;-77
2022/07/08 00:32:41;;;;;;;12.43;2.08;;;21.50;52.30;;;;;;7389051;19;20777;-77
2022/07/08 00:35:11;;;;;;;6.85;2.13;;;21.50;52.20;;;;;;7392626;19;20101;-77
2022/07/08 00:37:42;;;;;;;4.68;2.00;;;21.40;52.20;;;;;;7391562;19;20612;-77
2022/07/08 00:40:11;;;;;;;;;;;21.40;52.30;;;;;;7392401;19;20117;-77
2022/07/08 00:42:41;;;;;;;8.60;2.28;;;21.40;52.30;;;;;;7391077;19;19915;-77
2022/07/08 00:45:10;;;;;;;9.52;2.60;;;21.40;52.50;;;;;;7391620;19;20022;-77
2022/07/08 00:47:39;;;;;;;5.88;2.35;;;21.30;52.50;;;;;;7390747;19;20467;-77
2022/07/08 00:50:09;;;;;;;7.85;2.13;;;21.30;52.60;;;;;;7391237;19;20082;-77
2022/07/08 00:52:38;;;;;;;9.80;1.92;;;21.20;52.50;;;;;;7389286;19;20090;-77
2022/07/08 00:55:11;;;;;;;6.00;1.95;;;21.20;52.60;;;;;;7392304;19;20022;-77
2022/07/08 00:57:41;;;;;;;5.13;1.80;;;21.20;52.40;;;;;;7388231;19;20182;-77
2022/07/08 01:00:11;;;;;;;13.82;2.90;;;21.20;52.50;;;;;;7391538;19;20052;-77
2022/07/08 01:02:40;;;;;;;9.63;2.28;;;21.20;52.40;;;;;;7391476;19;20046;-77
2022/07/08 01:05:09;;;;;;;10.65;2.33;;;21.20;52.40;;;;;;7389774;19;20023;-77
2022/07/08 01:07:38;;;;;;;8.55;1.95;;;21.10;52.40;;;;;;7391595;19;20639;-77
2022/07/08 01:10:11;;;;;;;10.88;2.22;;;21.10;52.40;;;;;;7392277;19;20459;-77
2022/07/08 01:12:40;;;;;;;8.82;2.30;;;21.10;52.60;;;;;;7388583;19;20101;-76
2022/07/08 01:15:10;;;;;;;7.07;1.95;;;21.10;52.50;;;;;;7391968;19;20030;-77
2022/07/08 01:17:45;;;;;;;11.15;2.05;;;21.10;52.50;;;;;;7391264;19;20026;-77
2022/07/08 01:20:15;;;;;;;10.85;2.33;;;21.00;52.60;;;;;;7393537;19;20022;-77
2022/07/08 01:22:46;;;;;;;6.97;2.33;;;21.00;52.60;;;;;;7390304;19;20021;-77
2022/07/08 01:25:15;;;;;;;9.07;1.95;;;20.90;52.60;;;;;;7390413;19;20018;-77
2022/07/08 01:27:45;;;;;;;7.40;2.20;;;20.90;53.30;;;;;;7387479;19;20019;-77
2022/07/08 01:30:14;;;;;;;9.10;2.08;;;20.90;52.60;;;;;;7389579;19;20574;-77
2022/07/08 01:32:45;;;;;;;6.63;1.75;;;21.00;52.60;;;;;;7388657;19;20023;-77
2022/07/08 01:35:14;;;;;;;5.43;1.90;;;20.90;52.60;;;;;;7391750;19;20046;-77
2022/07/08 01:37:46;;;;;;;6.43;2.10;;;20.90;52.60;;;;;;7388756;19;20098;-77
2022/07/08 01:40:17;;;;;;;8.70;2.05;;;20.90;52.80;;;;;;7391834;19;20105;-77
2022/07/08 01:42:45;;;;;;;;;;;20.80;52.90;;;;;;7389799;19;20031;-77
2022/07/08 01:45:14;;;;;;;7.03;2.50;;;20.80;53.00;;;;;;7388601;19;19936;-77
2022/07/08 01:47:43;;;;;;;9.68;2.47;;;20.80;53.10;;;;;;7394819;19;20018;-77
2022/07/08 01:50:12;;;;;;;9.00;2.40;;;20.70;53.30;;;;;;7404407;19;20021;-77
2022/07/08 01:52:41;;;;;;;7.47;2.05;;;20.70;53.10;;;;;;7407083;19;20035;-77
2022/07/08 01:55:10;;;;;;;7.68;2.30;;;20.70;53.20;;;;;;7399582;19;20032;-77
2022/07/08 01:57:41;;;;;;;7.05;2.30;;;20.70;53.20;;;;;;7392568;19;20018;-77
2022/07/08 02:00:11;;;;;;;8.57;2.50;;;20.70;53.30;;;;;;7391470;19;20015;-77
2022/07/08 02:02:43;;;;;;;13.95;2.72;;;20.70;53.30;;;;;;7386797;19;20024;-77
2022/07/08 02:05:12;;;;;;;10.70;2.05;;;20.50;52.70;;;;;;7387338;19;20033;-77
2022/07/08 02:07:41;;;;;;;9.48;1.70;;;20.50;52.80;;;;;;7387169;19;20014;-77
2022/07/08 02:10:12;;;;;;;12.63;2.30;;;20.30;52.20;;;;;;7388933;19;20029;-77
2022/07/08 02:12:41;;;;;;;9.63;2.20;;;20.30;52.60;;;;;;7392004;19;20035;-77
2022/07/08 02:15:11;;;;;;;13.40;1.90;;;20.40;52.60;;;;;;7396570;19;20679;-77
2022/07/08 02:17:41;;;;;;;17.42;2.35;;;20.40;52.50;;;;;;7393210;19;20026;-77
2022/07/08 02:20:12;;;;;;;11.02;2.22;;;20.40;52.50;;;;;;7397611;19;20024;-77
2022/07/08 02:22:42;;;;;;;13.95;2.17;;;20.50;52.50;;;;;;7391720;19;20120;-77
2022/07/08 02:25:14;;;;;;;13.15;2.17;;;20.50;52.50;;;;;;7393327;19;20444;-77
2022/07/08 02:27:45;;;;;;;13.20;2.45;;;20.40;52.40;;;;;;7395222;19;20014;-77
2022/07/08 02:30:15;;;;;;;12.90;2.40;;;20.50;52.50;;;;;;7395482;19;20051;-77
2022/07/08 02:32:44;;;;;;;14.32;2.08;;;20.50;52.50;;;;;;7395777;19;20026;-77
2022/07/08 02:35:12;;;;;;;17.35;2.85;;;20.40;52.50;;;;;;7396955;19;20022;-77
2022/07/08 02:37:41;;;;;;;12.43;2.10;;;20.50;52.40;;;;;;7397730;19;20015;-77
2022/07/08 02:40:11;;;;;;;10.43;2.30;;;20.50;52.30;;;;;;7397845;19;20023;-78
2022/07/08 02:42:40;;;;;;;13.15;2.10;;;20.50;52.30;;;;;;7397788;19;20038;-77
2022/07/08 02:45:12;;;;;;;14.10;2.22;;;20.50;52.20;;;;;;7397217;19;20029;-77
2022/07/08 02:47:41;;;;;;;14.00;2.33;;;20.50;52.30;;;;;;7398421;19;20019;-77
2022/07/08 02:50:11;;;;;;;8.32;2.05;;;20.50;52.30;;;;;;7397461;19;20336;-77
2022/07/08 02:52:39;;;;;;;13.23;2.83;;;20.50;52.30;;;;;;7397869;19;20109;-77
2022/07/08 02:55:09;;;;;;;14.38;2.42;;;20.50;52.30;;;;;;7397703;19;20090;-77
2022/07/08 02:57:37;;;;;;;8.02;2.15;;;20.50;52.30;;;;;;7397269;19;20022;-77
2022/07/08 03:00:08;;;;;;;11.82;2.28;;;20.50;52.30;;;;;;7397009;19;20462;-77
2022/07/08 03:02:39;;;;;;;10.15;2.08;;;20.50;52.30;;;;;;7395299;19;20027;-77
2022/07/08 03:05:08;;;;;;;12.82;2.05;;;20.50;52.30;;;;;;7396419;19;20014;-76
2022/07/08 03:07:37;;;;;;;13.32;2.72;;;20.50;52.40;;;;;;7397936;19;20102;-77
2022/07/08 03:10:07;;;;;;;9.30;2.17;;;20.50;52.30;;;;;;7393810;19;20027;-77
2022/07/08 03:12:36;;;;;;;14.07;2.50;;;20.50;52.30;;;;;;7393336;19;20125;-77
2022/07/08 03:15:04;;;;;;;11.35;2.30;;;20.50;52.40;;;;;;7396654;19;20035;-77
2022/07/08 03:17:33;;;;;;;10.40;2.38;;;20.40;52.50;;;;;;7393101;19;20044;-77
2022/07/08 03:20:05;;;;;;;9.23;2.20;;;20.40;52.50;;;;;;7392474;19;20025;-77
2022/07/08 03:22:34;;;;;;;13.27;2.58;;;20.40;52.60;;;;;;7395168;19;20018;-77
2022/07/08 03:25:03;;;;;;;16.17;2.20;;;20.40;52.60;;;;;;7395543;19;20024;-77
2022/07/08 03:27:32;;;;;;;11.68;2.65;;;20.40;52.70;;;;;;7393616;19;20073;-77
2022/07/08 03:30:00;;;;;;;9.95;2.10;;;20.40;52.70;;;;;;7394183;19;20022;-77
2022/07/08 03:32:29;;;;;;;11.27;2.05;;;20.40;52.60;;;;;;7394487;19;20130;-77
2022/07/08 03:34:58;;;;;;;9.10;2.22;;;20.30;53.20;;;;;;7392000;19;20018;-77
2022/07/08 03:37:29;;;;;;;11.90;2.67;;;20.30;52.70;;;;;;7393205;19;20028;-77
2022/07/08 03:41:19;;;;;;;9.63;2.20;;;20.30;52.70;;;;;;7394965;19;20086;-77
2022/07/08 03:42:44;;;;;;;11.07;2.47;;;20.30;52.80;;;;;;7394886;19;20329;-77
2022/07/08 03:45:13;;;;;;;8.10;2.17;;;20.20;52.90;;;;;;7394438;19;20021;-78
2022/07/08 03:47:42;;;;;;;12.50;2.42;;;20.10;53.10;;;;;;7393547;19;20448;-77
2022/07/08 03:50:11;;;;;;;12.93;2.40;;;20.10;53.20;;;;;;7396102;19;20034;-77
2022/07/08 03:52:43;;;;;;;9.48;2.50;;;20.10;53.30;;;;;;7393915;19;20653;-77
2022/07/08 03:55:12;;;;;;;12.77;2.60;;;20.00;53.30;;;;;;7392980;19;20517;-77
2022/07/08 03:57:40;;;;;;;12.15;2.30;;;20.00;53.40;;;;;;7390651;19;20089;-77
2022/07/08 04:00:12;;;;;;;12.82;2.50;;;19.90;53.50;;;;;;7395268;19;20018;-77
2022/07/08 04:02:40;;;;;;;8.48;2.38;;;19.90;53.60;;;;;;7397890;19;20062;-77
2022/07/08 04:05:10;;;;;;;10.45;2.28;;;19.90;53.60;;;;;;7394045;19;20018;-78
2022/07/08 04:07:41;;;;;;;10.85;2.40;;;19.90;53.70;;;;;;7392568;19;20019;-77
2022/07/08 04:10:11;;;;;;;13.75;2.33;;;19.90;53.80;;;;;;7394570;19;20018;-77
2022/07/08 04:12:40;;;;;;;8.50;1.90;;;19.80;53.80;;;;;;7393454;19;20015;-77
2022/07/08 04:15:10;;;;;;;14.70;3.40;;;19.80;53.90;;;;;;7391746;19;20029;-77
2022/07/08 04:17:39;;;;;;;15.68;2.78;;;19.80;54.00;;;;;;7393626;19;20748;-77
2022/07/08 04:20:09;;;;;;;15.60;3.20;;;19.80;53.90;;;;;;7393364;19;20022;-77
2022/07/08 04:22:38;;;;;;;8.77;2.47;;;19.80;54.00;;;;;;7392463;19;20097;-77
2022/07/08 04:25:11;;;;;;;11.65;2.47;;;19.80;53.90;;;;;;7392593;19;20095;-77
2022/07/08 04:27:39;;;;;;;11.02;2.20;;;19.80;54.00;;;;;;7388948;19;20033;-77
2022/07/08 04:30:09;;;;;;;12.75;2.40;;;19.70;54.10;;;;;;7394815;19;20422;-77
2022/07/08 04:32:38;;;;;;;8.50;2.30;;;19.70;54.20;;;;;;7390417;19;20469;-77
2022/07/08 04:35:08;;;;;;;10.82;2.33;;;19.70;54.30;;;;;;7394346;19;20183;-77
2022/07/08 04:37:37;;;;;;;9.23;2.15;;;19.70;54.40;;;;;;7391498;19;20098;-77
2022/07/08 04:40:09;;;;;;;11.90;2.40;;;19.70;54.40;;;;;;7395433;19;20400;-77
2022/07/08 04:42:39;;;;;;;12.15;2.55;;;19.70;54.40;;;;;;7393727;19;20021;-77
2022/07/08 04:45:09;;;;;;;11.68;2.38;;;19.70;54.50;;;;;;7391402;19;20056;-77
2022/07/08 04:47:38;;;;;;;10.85;2.30;;;19.70;54.60;;;;;;7392228;19;20090;-77
2022/07/08 04:50:08;;;;;;;15.68;2.67;;;19.70;54.50;;;;;;7390407;19;20014;-77
2022/07/08 04:52:36;;;;;;;14.05;2.92;;;19.70;54.50;;;;;;7390959;19;20019;-77
2022/07/08 04:55:27;;;;;;;14.43;2.55;;;19.70;54.50;;;;;;7390684;19;20039;-78
2022/07/08 04:57:56;;;;;;;15.57;2.78;;;19.80;54.40;;;;;;7392905;19;20029;-78
2022/07/08 05:00:25;;;;;;;18.70;6.88;;;19.80;54.40;;;;;;7391322;19;20018;-80
2022/07/08 05:02:54;;;;;;;142.05;100.57;;;19.80;54.50;;;;;;7392822;19;20028;-80
2022/07/08 05:05:23;;;;;;;23.70;9.20;;;19.70;54.70;;;;;;7391807;19;20086;-80
2022/07/08 05:07:53;;;;;;;10.77;3.08;;;19.70;55.00;;;;;;7393488;19;20437;-82
2022/07/08 05:10:24;;;;;;;13.77;3.40;;;19.60;55.30;;;;;;7395695;19;20337;-80
2022/07/08 05:12:59;;;;;;;10.68;2.90;;;19.60;55.50;;;;;;7392397;19;20022;-79
2022/07/08 05:15:29;;;;;;;16.42;2.90;;;19.50;55.60;;;;;;7396592;19;20018;-80
2022/07/08 05:17:58;;;;;;;16.35;3.15;;;19.60;56.10;;;;;;7403825;19;20028;-78
2022/07/08 05:20:27;;;;;;;10.68;2.45;;;19.60;56.10;;;;;;7410940;19;20055;-77
2022/07/08 05:22:55;;;;;;;16.30;2.92;;;19.60;55.90;;;;;;7418681;19;20010;-78
2022/07/08 05:25:27;;;;;;;9.70;2.70;;;19.60;56.00;;;;;;7404928;19;20014;-80
2022/07/08 05:27:56;;;;;;;16.65;6.75;;;19.70;56.20;;;;;;7397056;19;20028;-78
2022/07/08 05:30:25;;;;;;;17.13;5.57;;;19.70;56.20;;;;;;7397775;19;20585;-82
2022/07/08 05:32:53;;;;;;;12.32;3.63;;;19.70;56.10;;;;;;7393343;19;20106;-77
2022/07/08 05:35:22;;;;;;;13.07;3.35;;;19.70;56.00;;;;;;7397218;19;20019;-87
2022/07/08 05:37:51;;;;;;;10.63;2.90;;;19.80;55.90;;;;;;7400503;19;20022;-80
2022/07/08 05:40:20;;;;;;;15.43;4.32;;;19.80;55.70;;;;;;7395225;19;20038;-81
2022/07/08 05:42:51;;;;;;;9.88;2.70;;;19.90;55.80;;;;;;7392747;19;20501;-80
2022/07/08 05:45:20;;;;;;;;;;;20.00;55.80;;;;;;7401571;19;20032;-82
2022/07/08 05:47:49;;;;;;;119.82;70.38;;;20.10;55.60;;;;;;7404755;19;19926;-78
2022/07/08 05:50:17;;;;;;;123.25;68.28;;;20.10;55.40;;;;;;7401451;19;20035;-80
2022/07/08 05:52:46;;;;;;;27.75;10.82;;;20.20;55.20;;;;;;7391318;19;20035;-79
2022/07/08 05:55:15;;;;;;;16.77;5.15;;;20.20;54.80;;;;;;7396458;19;20031;-76
2022/07/08 05:57:44;;;;;;;9.27;2.50;;;20.30;54.50;;;;;;7395762;19;20022;-76
2022/07/08 06:00:16;;;;;;;12.18;2.80;;;20.30;54.30;;;;;;7393460;19;20023;-76
2022/07/08 06:02:45;;;;;;;18.30;2.75;;;20.30;54.20;;;;;;7397194;19;20436;-76
2022/07/08 06:05:13;;;;;;;16.33;2.72;;;20.40;53.90;;;;;;7392198;19;20034;-76
2022/07/08 06:07:42;;;;;;;16.42;2.85;;;20.40;54.40;;;;;;7394403;19;20030;-76
2022/07/08 06:10:11;;;;;;;13.57;2.78;;;20.50;53.60;;;;;;7397540;19;20098;-76
2022/07/08 06:12:40;;;;;;;13.95;1.95;;;20.50;53.40;;;;;;7393836;19;20042;-75
2022/07/08 06:15:13;;;;;;;15.88;3.03;;;20.60;53.20;;;;;;7393661;19;20024;-76
2022/07/08 06:17:45;;;;;;;11.88;2.70;;;20.60;53.20;;;;;;7394722;19;20368;-76
2022/07/08 06:20:14;;;;;;;22.73;2.60;;;20.70;53.20;;;;;;7399684;19;20117;-76
2022/07/08 06:22:43;;;;;;;10.45;3.00;;;20.70;53.10;;;;;;7397272;19;20034;-75
2022/07/08 06:25:12;;;;;;;12.13;2.67;;;20.80;53.00;;;;;;7397501;19;20022;-76
2022/07/08 06:27:41;;;;;;;14.38;2.53;;;20.80;52.80;;;;;;7396204;19;20078;-76
2022/07/08 06:30:10;;;;;;;15.20;2.88;;;20.80;52.70;;;;;;7394766;19;20605;-76
2022/07/08 06:32:39;;;;;;;10.85;2.60;;;20.90;52.60;;;;;;7394511;19;20041;-76
2022/07/08 06:35:11;;;;;;;16.30;3.20;;;20.90;52.50;;;;;;7397972;19;20022;-76
2022/07/08 06:37:40;;;;;;;17.25;3.72;;;20.90;52.30;;;;;;7395703;19;20102;-76
2022/07/08 06:40:10;;;;;;;13.75;2.85;;;21.00;52.30;;;;;;7398132;19;20029;-76
2022/07/08 06:42:39;;;;;;;17.48;3.47;;;20.90;52.30;;;;;;7395875;19;20093;-76
2022/07/08 06:45:09;;;;;;;12.32;3.20;;;21.00;52.20;;;;;;7396819;19;20515;-76
2022/07/08 06:47:38;;;;;;;9.90;2.97;;;21.00;52.20;;;;;;7393247;19;20007;-76
2022/07/08 06:50:10;;;;;;;12.93;3.85;;;21.00;52.20;;;;;;7396715;19;20478;-76
2022/07/08 06:52:39;;;;;;;18.67;4.25;;;21.00;52.00;;;;;;7396402;19;20094;-76
2022/07/08 06:55:08;;;;;;;15.25;4.13;;;21.10;51.90;;;;;;7391620;19;20037;-76
2022/07/08 06:57:37;;;;;;;13.48;4.13;;;21.10;52.00;;;;;;7397271;19;20089;-76
2022/07/08 07:00:07;;;;;;;11.98;3.60;;;21.10;51.50;;;;;;7393630;19;20026;-75
2022/07/08 07:02:36;;;;;;;19.85;4.55;;;21.10;51.50;;;;;;7392227;19;20039;-76
2022/07/08 07:05:05;;;;;;;13.45;3.58;;;21.20;51.50;;;;;;7393175;19;20089;-77
2022/07/08 07:07:37;;;;;;;18.35;4.32;;;21.20;51.40;;;;;;7396010;19;20463;-76
2022/07/08 07:10:06;;;;;;;;;;;21.30;51.40;;;;;;7396168;19;20018;-77
2022/07/08 07:12:34;;;;;;;16.17;3.75;;;21.40;51.20;;;;;;7394376;19;19940;-76
2022/07/08 07:15:05;;;;;;;12.80;3.83;;;21.40;51.00;;;;;;7396032;19;20031;-76
2022/07/08 07:17:34;;;;;;;17.48;4.20;;;21.30;51.00;;;;;;7391970;19;20022;-76
2022/07/08 07:20:02;;;;;;;19.35;4.30;;;21.30;50.80;;;;;;7394761;19;20311;-76
2022/07/08 07:22:31;;;;;;;19.90;4.20;;;21.30;50.70;;;;;;7393683;19;20011;-76
2022/07/08 07:25:02;;;;;;;17.23;4.18;;;21.10;50.50;;;;;;7396196;19;20738;-76
2022/07/08 07:27:31;;;;;;;;;;;21.10;50.90;;;;;;7391578;19;20594;-76
2022/07/08 07:29:59;;;;;;;12.90;3.75;;;21.20;50.70;;;;;;7392639;19;20295;-75
2022/07/08 07:32:28;;;;;;;19.02;4.03;;;21.20;50.70;;;;;;7391062;19;20477;-76
2022/07/08 07:34:57;;;;;;;14.63;4.18;;;21.30;50.90;;;;;;7395331;19;20094;-74
2022/07/08 07:37:26;;;;;;;11.15;3.55;;;21.40;50.80;;;;;;7390432;19;20451;-75
2022/07/08 07:39:54;;;;;;;16.30;3.63;;;21.30;50.50;;;;;;7394018;19;20098;-75
2022/07/08 07:42:26;;;;;;;15.48;4.10;;;21.30;50.70;;;;;;7392072;19;20086;-75
2022/07/08 07:44:54;;;;;;;;;;;21.20;50.50;;;;;;7396860;19;20014;-76
2022/07/08 07:47:23;;;;;;;17.63;3.40;;;21.40;50.50;;;;;;7390925;19;19929;-75
2022/07/08 07:49:52;;;;;;;20.90;4.30;;;21.40;50.50;;;;;;7393262;19;20454;-74
2022/07/08 07:52:21;;;;;;;18.20;4.38;;;21.20;50.70;;;;;;7395751;19;20492;-74
2022/07/08 07:54:50;;;;;;;18.25;3.85;;;21.10;51.20;;;;;;7392087;19;20025;-75
2022/07/08 07:57:19;;;;;;;13.82;4.07;;;21.20;51.00;;;;;;7395924;19;20030;-74
2022/07/08 07:59:50;;;;;;;13.07;3.50;;;21.20;50.90;;;;;;7393423;19;20018;-74
2022/07/08 08:02:19;;;;;;;;;;;21.30;50.90;;;;;;7390585;19;20081;-74
2022/07/08 08:04:47;;;;;;;18.60;3.90;;;21.50;50.40;;;;;;7394717;19;19954;-75
2022/07/08 08:07:16;;;;;;;19.23;4.10;;;21.40;50.50;;;;;;7388167;19;20509;-74
2022/07/08 08:09:45;;;;;;;19.92;4.72;;;21.40;50.50;;;;;;7391481;19;20028;-75
2022/07/08 08:12:13;;;;;;;13.05;4.00;;;21.30;50.00;;;;;;7394160;19;20030;-75
2022/07/08 08:14:42;;;;;;;18.90;4.28;;;21.20;50.10;;;;;;7394419;19;20113;-75
2022/07/08 08:17:14;;;;;;;19.65;3.85;;;21.10;50.00;;;;;;7395250;19;20090;-75
2022/07/08 08:19:42;;;;;;;16.27;3.70;;;20.90;50.50;;;;;;7394266;19;20022;-75
2022/07/08 08:22:11;;;;;;;27.15;5.18;;;20.80;50.20;;;;;;7392313;19;20161;-75
2022/07/08 08:24:40;;;;;;;19.75;4.63;;;20.80;50.40;;;;;;7393590;19;20022;-75
2022/07/08 08:27:08;;;;;;;15.65;3.70;;;21.00;50.30;;;;;;7393906;19;20031;-75
2022/07/08 08:29:37;;;;;;;17.70;4.18;;;20.90;50.40;;;;;;7391221;19;20021;-75
2022/07/08 08:32:07;;;;;;;14.57;3.85;;;21.00;50.60;;;;;;7389084;19;20130;-75
2022/07/08 08:34:38;;;;;;;64.35;34.22;;;21.00;50.50;;;;;;7392173;19;20110;-77
2022/07/08 08:37:07;;;;;;;26.10;10.38;;;21.10;50.50;;;;;;7391868;19;20028;-75
2022/07/08 08:39:36;;;;;;;15.05;7.03;;;21.20;49.90;;;;;;7393946;19;20023;-76
2022/07/08 08:42:05;;;;;;;18.73;6.18;;;21.30;49.70;;;;;;7391813;19;20015;-75
2022/07/08 08:44:34;;;;;;;16.33;4.50;;;21.40;49.40;;;;;;7393049;19;20035;-75
2022/07/08 08:47:06;;;;;;;14.60;4.65;;;21.50;49.20;;;;;;7391352;19;20014;-74
2022/07/08 08:49:39;;;;;;;17.13;4.28;;;21.50;49.00;;;;;;7392694;19;20117;-75
2022/07/08 08:52:11;;;;;;;15.18;3.75;;;21.60;48.80;;;;;;7391977;19;20018;-74
2022/07/08 08:54:40;;;;;;;18.58;3.55;;;21.60;48.60;;;;;;7391257;19;20469;-75
2022/07/08 08:57:10;;;;;;;12.50;3.60;;;21.40;49.10;;;;;;7391725;19;20086;-75
2022/07/08 08:59:39;;;;;;;10.68;3.63;;;21.50;48.90;;;;;;7392443;19;20030;-76
2022/07/08 09:02:13;;;;;;;16.60;3.72;;;21.60;48.80;;;;;;7388831;19;20106;-76
2022/07/08 09:04:45;;;;;;;16.23;4.20;;;21.70;48.50;;;;;;7388115;19;20018;-76
2022/07/08 09:07:13;;;;;;;16.98;3.80;;;21.80;48.50;;;;;;7391928;19;20015;-75
2022/07/08 09:09:42;;;;;;;13.57;3.80;;;21.80;49.10;;;;;;7391858;19;20432;-74
2022/07/08 09:12:22;;;;;;;14.05;3.40;;;21.80;48.50;;;;;;7411442;19;20058;-74
2022/07/08 09:14:54;;;;;;;16.70;3.40;;;21.80;48.40;;;;;;7401013;19;20034;-75
2022/07/08 09:17:24;;;;;;;11.82;4.32;;;21.70;48.20;;;;;;7396360;19;20052;-74
2022/07/08 09:19:55;;;;;;;9.95;3.53;;;21.60;48.20;;;;;;7400714;19;20082;-76
2022/07/08 09:22:25;;;;;;;16.75;3.70;;;21.70;47.40;;;;;;7397660;19;20033;-74
2022/07/08 09:24:58;;;;;;;10.73;3.38;;;21.70;47.30;;;;;;7399354;19;20077;-74
2022/07/08 09:27:26;;;;;;;11.73;3.80;;;21.70;47.30;;;;;;7396053;19;20019;-75
2022/07/08 09:30:00;;;;;;;12.50;3.65;;;21.80;47.60;;;;;;7399832;19;20025;-75
2022/07/08 09:32:29;;;;;;;18.13;3.85;;;21.90;47.70;;;;;;7396019;19;20568;-75
2022/07/08 09:35:00;;;;;;;18.80;3.75;;;22.00;47.90;;;;;;7397402;19;20082;-76
2022/07/08 09:37:28;;;;;;;;;;;22.10;48.20;;;;;;7400308;19;20094;-76
2022/07/08 09:39:57;;;;;;;14.90;3.85;;;22.20;47.90;;;;;;7398256;19;19926;-76
2022/07/08 09:42:26;;;;;;;9.90;3.42;;;22.30;46.90;;;;;;7398459;19;20102;-76
2022/07/08 09:44:55;;;;;;;15.65;3.55;;;22.30;47.20;;;;;;7397234;19;20025;-75
2022/07/08 09:47:24;;;;;;;14.07;3.47;;;22.30;46.30;;;;;;7395710;19;20058;-76
2022/07/08 09:49:52;;;;;;;10.68;3.30;;;22.20;46.00;;;;;;7401089;19;20066;-76
2022/07/08 09:52:27;;;;;;;14.65;3.20;;;22.20;46.40;;;;;;7398288;19;20401;-76
2022/07/08 09:55:03;;;;;;;11.18;2.95;;;22.30;46.80;;;;;;7399138;19;20097;-74
2022/07/08 09:57:33;;;;;;;15.18;3.72;;;22.20;46.40;;;;;;7396694;19;20023;-75
2022/07/08 10:00:02;;;;;;;8.52;3.17;;;22.40;45.90;;;;;;7400638;19;20039;-76
2022/07/08 10:02:32;;;;;;;17.08;4.00;;;22.40;46.20;;;;;;7397505;19;20074;-76
2022/07/08 10:05:03;;;;;;;13.48;4.30;;;22.30;46.60;;;;;;7399898;19;20090;-76
2022/07/08 10:07:34;;;;;;;13.32;4.00;;;22.50;46.70;;;;;;7396863;19;20631;-75
2022/07/08 10:10:03;;;;;;;;;;;22.50;45.20;;;;;;7393461;19;20026;-75
2022/07/08 10:12:34;;;;;;;14.35;3.75;;;22.70;45.40;;;;;;7395805;19;19936;-76
2022/07/08 10:15:05;;;;;;;14.35;3.25;;;22.70;45.30;;;;;;7398537;19;20089;-75
2022/07/08 10:17:42;;;;;;;14.40;3.17;;;22.70;44.50;;;;;;7396917;19;20093;-75
2022/07/08 10:20:15;;;;;;;10.50;3.45;;;22.70;44.30;;;;;;7399316;19;20025;-76
2022/07/08 10:22:49;;;;;;;14.98;3.05;;;22.80;44.00;;;;;;7397806;19;20038;-75
2022/07/08 10:25:19;;;;;;;15.98;3.25;;;22.90;43.60;;;;;;7397008;19;20022;-76
2022/07/08 10:27:48;;;;;;;11.80;3.30;;;23.00;44.40;;;;;;7397040;19;20089;-75
2022/07/08 10:30:17;;;;;;;12.23;3.28;;;22.90;44.20;;;;;;7398404;19;20027;-74
2022/07/08 10:32:49;;;;;;;14.40;3.92;;;22.90;43.20;;;;;;7394158;19;20082;-75
2022/07/08 10:35:22;;;;;;;10.77;3.13;;;23.00;43.30;;;;;;7395687;19;20018;-75
2022/07/08 10:38:00;;;;;;;13.10;3.10;;;23.00;43.60;;;;;;7399656;19;20403;-75
2022/07/08 10:40:51;;;;;;;12.48;3.00;;;23.00;42.90;;;;;;7399704;19;20010;-75
2022/07/08 10:43:24;;;;;;;15.30;3.50;;;23.10;43.50;;;;;;7398453;19;20019;-75
2022/07/08 10:46:04;;;;;;;13.80;3.47;;;23.00;43.20;;;;;;7395545;19;20023;-75
2022/07/08 10:48:52;;;;;;;12.75;3.17;;;23.10;42.70;;;;;;7397205;19;20023;-76
2022/07/08 10:51:46;;;;;;;14.25;3.40;;;23.20;43.50;;;;;;7398380;19;20035;-82
2022/07/08 10:54:35;;;;;;;13.10;3.05;;;23.30;42.70;;;;;;7396181;19;20022;-77
2022/07/08 10:57:03;;;;;;;13.63;3.80;;;23.30;42.60;;;;;;7398077;19;20044;-77
2022/07/08 10:59:35;;;;;;;11.82;2.95;;;23.30;42.20;;;;;;7399156;19;20027;-78
2022/07/08 11:02:06;;;;;;;10.60;3.03;;;23.40;41.80;;;;;;7399110;19;20007;-81
2022/07/08 11:04:53;;;;;;;13.25;3.05;;;23.50;41.50;;;;;;7399762;19;20023;-79
2022/07/08 11:07:27;;;;;;;13.20;3.20;;;23.50;42.90;;;;;;7398456;19;20022;-81
2022/07/08 11:10:02;;;;;;;11.25;2.78;;;23.50;42.10;;;;;;7397990;19;20025;-79
2022/07/08 11:12:33;;;;;;;13.15;2.97;;;23.60;41.90;;;;;;7397258;19;20035;-80
2022/07/08 11:15:03;;;;;;;11.65;3.53;;;23.70;41.80;;;;;;7395868;19;20069;-86
2022/07/08 11:17:34;;;;;;;13.50;2.70;;;23.70;41.50;;;;;;7405976;19;20019;-88
2022/07/08 11:20:04;;;;;;;11.23;3.28;;;23.80;41.40;;;;;;7408507;19;20015;-88
2022/07/08 11:22:37;;;;;;;12.98;3.10;;;23.70;40.70;;;;;;7408076;19;20730;-88
2022/07/08 11:25:11;;;;;;;11.60;3.42;;;23.50;41.50;;;;;;7405379;19;20472;-88
2022/07/08 11:27:40;;;;;;;13.90;2.80;;;23.60;41.90;;;;;;7407819;19;20058;-87
2022/07/08 11:30:13;;;;;;;9.93;3.00;;;23.60;41.40;;;;;;7407978;19;20749;-87
2022/07/08 11:32:42;;;;;;;9.43;2.88;;;23.70;41.20;;;;;;7411310;19;20018;-88
2022/07/08 11:35:13;;;;;;;19.25;3.47;;;23.60;41.20;;;;;;7416006;19;20021;-87
2022/07/08 11:37:42;;;;;;;15.55;5.75;;;23.70;41.10;;;;;;7412104;19;20022;-88
2022/07/08 11:40:16;;;;;;;10.10;2.30;;;23.80;41.30;;;;;;7409185;19;20018;-87
2022/07/08 11:42:45;;;;;;;10.70;3.00;;;23.90;41.10;;;;;;7408810;19;20030;-87
2022/07/08 11:45:15;;;;;;;8.48;2.83;;;24.00;40.50;;;;;;7411518;19;20363;-88
2022/07/08 11:47:44;;;;;;;11.48;3.33;;;24.10;39.80;;;;;;7408327;19;20444;-87
2022/07/08 11:50:13;;;;;;;11.85;2.50;;;24.10;40.30;;;;;;7403734;19;20111;-87
2022/07/08 11:52:42;;;;;;;12.70;2.53;;;24.20;39.80;;;;;;7405560;19;20094;-87
2022/07/08 11:55:13;;;;;;;12.85;2.65;;;24.30;40.00;;;;;;7410256;19;20034;-89
2022/07/08 11:57:43;;;;;;;5.55;2.22;;;24.30;39.90;;;;;;7418630;19;20011;-89
2022/07/08 12:00:13;;;;;;;11.45;2.83;;;24.30;40.50;;;;;;7417214;19;20038;-89
2022/07/08 12:02:43;;;;;;;12.52;2.97;;;24.40;40.50;;;;;;7423060;19;20023;-89
2022/07/08 12:05:12;;;;;;;6.53;2.22;;;24.50;40.40;;;;;;7414024;19;20046;-89
2022/07/08 12:07:41;;;;;;;9.80;2.47;;;24.60;40.40;;;;;;7400500;19;20359;-87
2022/07/08 12:10:13;;;;;;;11.65;2.42;;;24.70;40.00;;;;;;7404601;19;20011;-86
2022/07/08 12:12:45;;;;;;;9.70;2.60;;;24.80;39.60;;;;;;7395997;19;20320;-86
2022/07/08 12:15:17;;;;;;;7.93;2.97;;;24.70;39.60;;;;;;7398375;19;20295;-86
2022/07/08 12:17:59;;;;;;;9.38;2.65;;;24.70;39.10;;;;;;7400641;19;20404;-86
2022/07/08 12:20:34;;;;;;;10.95;2.47;;;24.70;38.30;;;;;;7400945;19;20029;-87
2022/07/08 12:23:03;;;;;;;7.47;2.40;;;24.70;38.90;;;;;;7399500;19;20010;-85
2022/07/08 12:25:50;;;;;;;7.05;1.85;;;24.80;38.80;;;;;;7401017;19;20023;-87
2022/07/08 12:28:24;;;;;;;8.02;1.98;;;24.90;39.00;;;;;;7402351;19;20031;-87
2022/07/08 12:30:53;;;;;;;7.95;2.22;;;25.00;38.90;;;;;;7404415;19;20010;-86
2022/07/08 12:36:37;;;;;;;12.27;3.28;;;25.10;38.90;;;;;;7391757;19;20046;-87
2022/07/08 12:39:17;;;;;;;8.85;2.00;;;25.20;38.90;;;;;;7411439;19;20038;-88
2022/07/08 12:42:00;;;;;;;7.60;1.77;;;25.20;38.20;;;;;;7409226;19;20635;-86
2022/07/08 12:44:39;;;;;;;10.88;2.28;;;25.10;38.20;;;;;;7404728;19;20090;-88
2022/07/08 12:47:09;;;;;;;11.35;2.70;;;25.10;39.10;;;;;;7402137;19;20599;-86
2022/07/08 12:49:40;;;;;;;5.20;1.70;;;25.30;38.90;;;;;;7404884;19;20356;-88
2022/07/08 12:52:13;;;;;;;5.72;1.85;;;25.40;38.80;;;;;;7408100;19;20011;-89
2022/07/08 12:57:43;;;;;;;5.45;2.15;;;25.50;38.20;;;;;;7403789;19;20014;-89
2022/07/08 13:00:13;;;;;;;9.95;2.10;;;25.40;37.80;;;;;;7419111;19;20015;-89
2022/07/08 13:02:43;;;;;;;8.95;1.85;;;25.50;37.90;;;;;;7410093;19;20010;-88